createdAt,value
2023-03-26T00:01:17.069Z,96770.38
2023-03-26T00:03:47.166Z,96769.53
2023-03-26T00:06:17.208Z,96776.13
2023-03-26T00:08:45.784Z,96773.56
2023-03-26T00:11:14.833Z,96773.97
2023-03-26T00:13:43.712Z,96785.59
2023-03-26T00:16:13.745Z,96780.44
2023-03-26T00:18:42.479Z,96786.38
2023-03-26T00:21:13.093Z,96784.50
2023-03-26T00:23:40.013Z,96785.41
2023-03-26T00:26:10.683Z,96787.09
2023-03-26T00:28:40.434Z,96782.50
2023-03-26T00:31:10.553Z,96783.00
2023-03-26T00:33:38.254Z,96779.84
2023-03-26T00:36:09.889Z,96785.47
2023-03-26T00:38:39.101Z,96784.38
2023-03-26T00:41:17.539Z,96777.69
2023-03-26T00:43:46.711Z,96781.31
2023-03-26T00:46:13.274Z,96775.91
2023-03-26T00:48:45.465Z,96782.34
2023-03-26T00:51:15.406Z,96779.38
2023-03-26T00:53:46.341Z,96780.19
2023-03-26T00:56:13.596Z,96775.66
2023-03-26T00:58:40.602Z,96766.75
2023-03-26T01:01:18.889Z,96768.31
2023-03-26T01:03:57.101Z,96761.53
2023-03-26T01:06:35.683Z,96755.13
2023-03-26T01:09:11.099Z,96746.59
2023-03-26T01:11:37.719Z,96746.44
2023-03-26T01:14:14.566Z,96740.06
2023-03-26T01:16:45.160Z,96725.97
2023-03-26T01:19:22.790Z,96722.91
2023-03-26T01:21:49.299Z,96716.44
2023-03-26T01:24:16.227Z,96705.56
2023-03-26T01:27:04.424Z,96699.47
2023-03-26T01:29:41.759Z,96692.03
2023-03-26T01:32:24.405Z,96693.53
2023-03-26T01:34:59.020Z,96685.63
2023-03-26T01:37:30.492Z,96680.41
2023-03-26T01:40:07.171Z,96680.50
2023-03-26T01:42:59.434Z,96671.66
2023-03-26T01:45:30.860Z,96667.69
2023-03-26T01:47:58.409Z,96667.06
2023-03-26T01:50:25.499Z,96666.88
2023-03-26T01:52:52.032Z,96660.22
2023-03-26T01:55:18.947Z,96647.50
2023-03-26T01:58:00.442Z,96640.94
2023-03-26T02:00:33.658Z,96638.63
2023-03-26T02:03:31.511Z,96633.00
2023-03-26T02:06:20.211Z,96623.56
2023-03-26T02:09:07.036Z,96616.22
2023-03-26T02:11:37.182Z,96620.91
2023-03-26T02:14:05.973Z,96603.75
2023-03-26T02:16:32.956Z,96601.78
2023-03-26T02:19:00.234Z,96605.59
2023-03-26T02:21:27.928Z,96603.19
2023-03-26T02:24:03.358Z,96594.63
2023-03-26T02:26:34.360Z,96597.53
2023-03-26T02:29:07.585Z,96590.31
2023-03-26T02:31:36.753Z,96592.31
2023-03-26T02:34:03.321Z,96589.38
2023-03-26T02:36:33.008Z,96586.03
2023-03-26T02:39:02.443Z,96589.75
2023-03-26T02:41:32.976Z,96582.50
2023-03-26T02:44:03.948Z,96586.38
2023-03-26T02:46:50.439Z,96585.91
2023-03-26T02:49:35.809Z,96589.88
2023-03-26T02:52:06.305Z,96586.25
2023-03-26T02:54:34.479Z,96576.94
2023-03-26T02:57:21.429Z,96568.41
2023-03-26T03:00:12.693Z,96564.56
2023-03-26T03:02:39.820Z,96553.47
2023-03-26T03:05:26.673Z,96552.81
2023-03-26T03:08:11.448Z,96556.66
2023-03-26T03:10:44.630Z,96546.34
2023-03-26T03:13:19.709Z,96548.00
2023-03-26T03:15:47.116Z,96532.38
2023-03-26T03:18:13.656Z,96529.69
2023-03-26T03:20:40.313Z,96522.00
2023-03-26T03:23:06.973Z,96520.38
2023-03-26T03:25:33.771Z,96517.94
2023-03-26T03:28:00.657Z,96515.84
2023-03-26T03:30:27.201Z,96509.28
2023-03-26T03:32:53.765Z,96501.00
2023-03-26T03:35:23.134Z,96498.09
2023-03-26T03:37:54.095Z,96487.94
2023-03-26T03:40:20.654Z,96493.88
2023-03-26T03:42:47.495Z,96487.78
2023-03-26T03:45:20.345Z,96482.06
2023-03-26T03:48:06.476Z,96482.56
2023-03-26T03:50:39.249Z,96480.19
2023-03-26T03:53:26.475Z,96482.50
2023-03-26T03:55:58.539Z,96474.78
2023-03-26T03:58:47.995Z,96481.19
2023-03-26T04:01:22.651Z,96478.75
2023-03-26T04:03:58.810Z,96475.75
2023-03-26T04:06:37.074Z,96466.59
2023-03-26T04:09:03.964Z,96458.88
2023-03-26T04:11:30.785Z,96456.41
2023-03-26T04:14:12.154Z,96454.81
2023-03-26T04:16:59.807Z,96448.50
2023-03-26T04:19:28.894Z,96443.84
2023-03-26T04:21:55.454Z,96441.41
2023-03-26T04:24:22.425Z,96442.56
2023-03-26T04:27:16.508Z,96436.56
2023-03-26T04:29:48.172Z,96427.38
2023-03-26T04:32:19.411Z,96407.88
2023-03-26T04:34:47.937Z,96401.78
2023-03-26T04:37:26.522Z,96397.56
2023-03-26T04:40:11.417Z,96398.69
2023-03-26T04:42:47.333Z,96401.75
2023-03-26T04:45:26.156Z,96397.19
2023-03-26T04:47:59.760Z,96401.41
2023-03-26T04:50:26.878Z,96399.88
2023-03-26T04:52:56.663Z,96394.03
2023-03-26T04:55:59.104Z,96387.25
2023-03-26T04:58:46.037Z,96390.13
2023-03-26T05:01:12.566Z,96391.59
2023-03-26T05:03:45.606Z,96383.50
2023-03-26T05:06:14.096Z,96385.38
2023-03-26T05:08:41.789Z,96381.47
2023-03-26T05:11:12.247Z,96375.78
2023-03-26T05:13:39.536Z,96378.94
2023-03-26T05:16:11.409Z,96367.72
2023-03-26T05:18:47.671Z,96354.31
2023-03-26T05:21:14.283Z,96354.31
2023-03-26T05:23:41.039Z,96343.97
2023-03-26T05:26:16.969Z,96335.59
2023-03-26T05:28:43.525Z,96327.56
2023-03-26T05:31:33.431Z,96317.16
2023-03-26T05:34:01.434Z,96321.22
2023-03-26T05:36:28.404Z,96313.66
2023-03-26T05:39:06.107Z,96321.38
2023-03-26T05:41:55.868Z,96314.44
2023-03-26T05:44:28.225Z,96322.44
2023-03-26T05:46:55.319Z,96321.34
2023-03-26T05:49:25.726Z,96313.06
2023-03-26T05:51:55.445Z,96294.53
2023-03-26T05:54:34.671Z,96290.41
2023-03-26T05:57:22.196Z,96275.09
2023-03-26T06:00:24.192Z,96265.28
2023-03-26T06:02:56.485Z,96265.78
2023-03-26T06:05:57.966Z,96265.50
2023-03-26T06:08:39.619Z,96248.19
2023-03-26T06:11:10.264Z,96245.91
2023-03-26T06:13:39.895Z,96237.41
2023-03-26T06:16:07.089Z,96226.13
2023-03-26T06:18:37.059Z,96227.84
2023-03-26T06:21:12.380Z,96232.28
2023-03-26T06:23:44.538Z,96223.50
2023-03-26T06:26:30.642Z,96221.78
2023-03-26T06:29:17.066Z,96224.94
2023-03-26T06:32:16.384Z,96220.66
2023-03-26T06:34:49.897Z,96232.50
2023-03-26T06:37:18.116Z,96221.03
2023-03-26T06:39:46.278Z,96218.16
2023-03-26T06:42:18.764Z,96217.09
2023-03-26T06:44:45.386Z,96215.47
2023-03-26T06:47:30.822Z,96203.97
2023-03-26T06:50:15.942Z,96184.72
2023-03-26T06:53:11.895Z,96186.09
2023-03-26T06:55:54.593Z,96189.78
2023-03-26T06:58:23.859Z,96189.16
2023-03-26T07:01:09.053Z,96186.47
2023-03-26T07:03:54.462Z,96181.94
2023-03-26T07:06:39.665Z,96175.97
2023-03-26T07:09:26.261Z,96166.00
2023-03-26T07:12:27.940Z,96170.84
2023-03-26T07:15:12.906Z,96142.97
2023-03-26T07:18:14.979Z,96169.28
2023-03-26T07:20:45.142Z,96132.72
2023-03-26T07:23:13.744Z,96147.41
2023-03-26T07:25:56.729Z,96169.97
2023-03-26T07:28:40.076Z,96110.47
2023-03-26T07:31:27.088Z,96134.16
2023-03-26T07:34:40.587Z,96143.25
2023-03-26T07:37:50.203Z,96129.28
2023-03-26T07:40:49.100Z,96119.81
2023-03-26T07:44:18.333Z,96117.66
2023-03-26T07:47:32.758Z,96105.94
2023-03-26T07:50:23.496Z,96113.22
2023-03-26T07:53:01.872Z,96110.25
2023-03-26T07:55:41.708Z,96103.63
2023-03-26T07:59:13.061Z,96102.97
2023-03-26T08:02:33.527Z,96097.41
2023-03-26T08:05:30.291Z,96092.31
2023-03-26T08:08:25.722Z,96084.63
2023-03-26T08:11:30.074Z,96093.59
2023-03-26T08:14:03.113Z,96086.75
2023-03-26T08:17:00.674Z,96076.50
2023-03-26T08:19:50.830Z,96071.72
2023-03-26T08:22:26.251Z,96073.38
2023-03-26T08:25:12.242Z,96071.19
2023-03-26T08:27:51.742Z,96081.31
2023-03-26T08:30:24.440Z,96072.25
2023-03-26T08:33:21.399Z,96071.47
2023-03-26T08:35:48.925Z,96065.34
2023-03-26T08:38:18.457Z,96066.56
2023-03-26T08:41:14.642Z,96068.75
2023-03-26T08:43:56.510Z,96061.47
2023-03-26T08:46:32.357Z,96079.06
2023-03-26T08:49:29.922Z,96074.16
2023-03-26T08:52:18.224Z,96080.47
2023-03-26T08:55:06.638Z,96076.47
2023-03-26T08:57:53.539Z,96085.31
2023-03-26T09:00:31.052Z,96073.97
2023-03-26T09:03:35.762Z,96088.44
2023-03-26T09:06:17.452Z,96080.06
2023-03-26T09:09:33.113Z,96083.28
2023-03-26T09:12:25.471Z,96070.53
2023-03-26T09:15:20.324Z,96056.81
2023-03-26T09:18:05.747Z,96045.75
2023-03-26T09:21:01.902Z,96054.50
2023-03-26T09:23:48.432Z,96035.06
2023-03-26T09:26:25.986Z,96055.69
2023-03-26T09:29:22.538Z,96041.56
2023-03-26T09:32:26.540Z,96039.00
2023-03-26T09:35:13.780Z,96037.31
2023-03-26T09:37:58.612Z,96039.31
2023-03-26T09:40:44.860Z,96039.31
2023-03-26T09:43:42.902Z,96052.00
2023-03-26T09:46:28.243Z,96041.81
2023-03-26T09:49:25.260Z,96039.09
2023-03-26T09:52:21.012Z,96033.16
2023-03-26T09:54:53.513Z,96037.22
2023-03-26T09:57:37.606Z,96037.78
2023-03-26T10:00:43.265Z,96036.16
2023-03-26T10:03:32.518Z,96032.94
2023-03-26T10:06:37.081Z,96014.59
2023-03-26T10:09:18.236Z,96016.16
2023-03-26T10:11:47.729Z,96022.34
2023-03-26T10:14:32.692Z,96016.59
2023-03-26T10:17:28.342Z,96020.56
2023-03-26T10:20:09.350Z,96010.03
2023-03-26T10:22:57.769Z,96012.09
2023-03-26T10:25:50.718Z,96009.34
2023-03-26T10:28:55.691Z,96021.13
2023-03-26T10:31:51.382Z,95995.16
2023-03-26T10:34:55.658Z,95995.78
2023-03-26T10:37:37.779Z,96008.91
2023-03-26T10:40:20.262Z,96000.75
2023-03-26T10:43:02.006Z,96013.09
2023-03-26T10:45:35.760Z,96008.19
2023-03-26T10:48:30.220Z,96002.91
2023-03-26T10:51:05.689Z,95995.63
2023-03-26T10:53:50.563Z,95983.13
2023-03-26T10:56:28.549Z,95991.53
2023-03-26T10:58:56.992Z,95992.31
2023-03-26T11:01:43.745Z,95986.88
2023-03-26T11:04:26.979Z,95996.81
2023-03-26T11:06:53.439Z,95999.69
2023-03-26T11:09:31.065Z,95994.38
2023-03-26T11:12:27.108Z,95978.34
2023-03-26T11:15:06.436Z,95991.50
2023-03-26T11:17:50.619Z,95991.94
2023-03-26T11:20:40.252Z,95984.50
2023-03-26T11:23:21.879Z,95982.31
2023-03-26T11:25:51.290Z,95988.00
2023-03-26T11:28:31.870Z,95990.00
2023-03-26T11:31:08.507Z,95996.03
2023-03-26T11:33:45.537Z,95988.66
2023-03-26T11:36:17.725Z,95990.13
2023-03-26T11:38:47.425Z,95994.06
2023-03-26T11:41:25.757Z,96003.44
2023-03-26T11:44:05.287Z,96010.97
2023-03-26T11:46:38.779Z,96023.38
2023-03-26T11:49:11.176Z,96029.69
2023-03-26T11:51:39.973Z,96037.78
2023-03-26T11:54:11.092Z,96037.50
2023-03-26T11:57:04.458Z,96019.44
2023-03-26T11:59:56.576Z,96020.50
2023-03-26T12:02:35.562Z,96017.25
2023-03-26T12:05:33.423Z,96008.56
2023-03-26T12:08:02.709Z,96016.53
2023-03-26T12:10:32.539Z,96009.44
2023-03-26T12:13:02.597Z,96016.19
2023-03-26T12:15:31.938Z,96013.72
2023-03-26T12:18:17.412Z,96021.88
2023-03-26T12:20:45.008Z,96019.88
2023-03-26T12:23:36.177Z,96008.50
2023-03-26T12:26:14.275Z,96015.03
2023-03-26T12:28:48.824Z,96015.28
2023-03-26T12:31:19.051Z,96014.06
2023-03-26T12:34:07.750Z,96000.16
2023-03-26T12:36:35.721Z,95997.53
2023-03-26T12:40:07.089Z,95995.56
2023-03-26T12:44:48.503Z,95988.94
2023-03-26T12:45:14.432Z,95984.00
2023-03-26T12:47:57.523Z,95978.28
2023-03-26T12:51:12.839Z,95969.84
2023-03-26T12:53:59.194Z,95959.69
2023-03-26T12:56:38.472Z,95950.03
2023-03-26T12:59:23.436Z,95955.09
2023-03-26T13:02:29.207Z,95957.59
2023-03-26T13:05:06.537Z,95958.91
2023-03-26T13:07:58.512Z,95965.06
2023-03-26T13:10:53.529Z,95960.31
2023-03-26T13:13:32.962Z,95963.78
2023-03-26T13:16:04.368Z,95959.22
2023-03-26T13:18:37.180Z,95941.72
2023-03-26T13:21:12.509Z,95936.16
2023-03-26T13:24:00.671Z,95935.72
2023-03-26T13:26:55.170Z,95931.34
2023-03-26T13:29:31.390Z,95933.94
2023-03-26T13:32:23.066Z,95916.16
2023-03-26T13:35:18.151Z,95920.56
2023-03-26T13:38:05.545Z,95924.94
2023-03-26T13:40:37.710Z,95927.16
2023-03-26T13:43:32.521Z,95920.75
2023-03-26T13:46:13.572Z,95920.19
2023-03-26T13:48:52.915Z,95911.88
2023-03-26T13:51:56.002Z,95915.94
2023-03-26T13:54:31.306Z,95914.53
2023-03-26T13:57:07.635Z,95906.56
2023-03-26T13:59:54.478Z,95905.81
2023-03-26T14:02:33.687Z,95898.50
2023-03-26T14:05:05.445Z,95904.72
2023-03-26T14:07:44.640Z,95906.22
2023-03-26T14:10:22.173Z,95912.75
2023-03-26T14:13:19.044Z,95898.03
2023-03-26T14:15:58.348Z,95912.63
2023-03-26T14:18:35.841Z,95915.16
2023-03-26T14:21:21.658Z,95921.84
2023-03-26T14:24:26.651Z,95913.56
2023-03-26T14:27:08.431Z,95917.59
2023-03-26T14:29:41.537Z,95921.44
2023-03-26T14:32:36.861Z,95943.06
2023-03-26T14:35:46.975Z,95940.09
2023-03-26T14:38:38.263Z,95952.44
2023-03-26T14:41:24.782Z,95957.41
2023-03-26T14:44:09.781Z,95956.84
2023-03-26T14:46:50.939Z,95977.66
2023-03-26T14:49:17.423Z,96032.41
2023-03-26T14:52:09.597Z,96021.72
2023-03-26T14:54:42.909Z,96025.22
2023-03-26T14:57:28.948Z,96022.78
2023-03-26T15:00:20.821Z,96018.97
2023-03-26T15:03:07.421Z,96013.91
2023-03-26T15:05:42.841Z,96010.81
2023-03-26T15:08:35.175Z,96030.88
2023-03-26T15:11:02.137Z,96018.69
2023-03-26T15:13:48.457Z,96024.88
2023-03-26T15:16:45.394Z,96025.91
2023-03-26T15:19:30.832Z,96027.31
2023-03-26T15:22:20.141Z,96027.28
2023-03-26T15:25:21.999Z,96022.47
2023-03-26T15:28:25.544Z,96020.03
2023-03-26T15:31:31.694Z,96006.44
2023-03-26T15:34:23.958Z,95989.50
2023-03-26T15:37:11.865Z,95977.41
2023-03-26T15:40:08.260Z,95983.38
2023-03-26T15:42:53.621Z,95971.78
2023-03-26T15:45:37.034Z,95973.34
2023-03-26T15:48:12.595Z,95983.84
2023-03-26T15:50:48.121Z,95971.03
2023-03-26T15:53:29.708Z,95967.47
2023-03-26T15:56:34.119Z,95960.75
2023-03-26T15:59:06.263Z,95959.72
2023-03-26T16:02:04.444Z,95971.06
2023-03-26T16:04:52.341Z,95966.78
2023-03-26T16:07:39.072Z,95965.13
2023-03-26T16:10:28.156Z,95965.84
2023-03-26T16:13:16.510Z,95962.69
2023-03-26T16:15:51.516Z,95965.47
2023-03-26T16:18:25.313Z,95964.34
2023-03-26T16:21:04.329Z,95963.06
2023-03-26T16:23:53.671Z,95969.84
2023-03-26T16:26:35.551Z,95975.25
2023-03-26T16:29:04.659Z,95974.22
2023-03-26T16:31:38.687Z,95975.81
2023-03-26T16:34:07.791Z,95988.31
2023-03-26T16:36:44.171Z,95995.06
2023-03-26T16:39:24.381Z,96000.81
2023-03-26T16:42:06.467Z,96000.53
2023-03-26T16:45:00.915Z,96018.16
2023-03-26T16:47:45.934Z,96019.09
2023-03-26T16:50:12.461Z,96023.03
2023-03-26T16:52:56.893Z,96019.84
2023-03-26T16:55:42.738Z,96021.56
2023-03-26T16:58:37.113Z,96025.94
2023-03-26T17:01:08.470Z,96028.63
2023-03-26T17:04:07.069Z,96028.66
2023-03-26T17:06:56.454Z,96029.16
2023-03-26T17:09:34.291Z,96041.91
2023-03-26T17:12:12.463Z,96046.63
2023-03-26T17:15:06.392Z,96042.38
2023-03-26T17:17:54.861Z,96044.78
2023-03-26T17:20:33.394Z,96040.72
2023-03-26T17:23:13.884Z,96034.63
2023-03-26T17:25:54.339Z,96035.53
2023-03-26T17:28:47.005Z,96041.19
2023-03-26T17:31:41.197Z,96040.69
2023-03-26T17:34:39.101Z,96033.81
2023-03-26T17:37:10.464Z,96044.91
2023-03-26T17:39:39.874Z,96037.84
2023-03-26T17:42:15.700Z,96035.94
2023-03-26T17:44:44.130Z,96039.44
2023-03-26T17:47:20.749Z,96042.72
2023-03-26T17:49:52.848Z,96031.75
2023-03-26T17:52:48.088Z,96037.13
2023-03-26T17:55:19.651Z,96033.59
2023-03-26T17:57:51.522Z,96028.38
2023-03-26T18:00:22.718Z,96032.13
2023-03-26T18:02:57.200Z,96034.06
2023-03-26T18:05:28.178Z,96030.84
2023-03-26T18:08:28.358Z,96032.94
2023-03-26T18:11:17.586Z,96036.41
2023-03-26T18:14:02.511Z,96038.84
2023-03-26T18:16:59.796Z,96037.06
2023-03-26T18:19:26.831Z,96033.03
2023-03-26T18:21:56.783Z,96045.38
2023-03-26T18:24:32.836Z,96045.03
2023-03-26T18:27:06.102Z,96048.81
2023-03-26T18:29:35.315Z,96056.34
2023-03-26T18:32:03.546Z,96063.13
2023-03-26T18:34:32.801Z,96057.66
2023-03-26T18:37:14.611Z,96057.91
2023-03-26T18:39:42.929Z,96055.28
2023-03-26T18:42:23.459Z,96053.69
2023-03-26T18:44:52.941Z,96046.50
2023-03-26T18:47:20.460Z,96040.44
2023-03-26T18:49:49.597Z,96044.44
2023-03-26T18:52:19.276Z,96036.66
2023-03-26T18:54:52.778Z,96041.63
2023-03-26T18:57:27.132Z,96036.16
2023-03-26T18:59:56.604Z,96039.31
2023-03-26T19:02:25.254Z,96041.66
2023-03-26T19:04:54.318Z,96050.91
2023-03-26T19:07:25.166Z,96036.38
2023-03-26T19:09:56.184Z,96029.22
2023-03-26T19:12:31.011Z,96033.03
2023-03-26T19:15:02.277Z,96031.97
2023-03-26T19:17:31.543Z,96041.81
2023-03-26T19:19:58.340Z,96043.69
2023-03-26T19:22:25.286Z,96035.50
2023-03-26T19:24:56.113Z,96036.00
2023-03-26T19:27:22.794Z,96039.66
2023-03-26T19:29:49.238Z,96025.53
2023-03-26T19:32:20.407Z,96024.31
2023-03-26T19:34:48.104Z,96026.34
2023-03-26T19:37:22.738Z,96027.66
2023-03-26T19:39:51.267Z,96030.88
2023-03-26T19:42:23.742Z,96031.72
2023-03-26T19:44:51.608Z,96031.22
2023-03-26T19:47:19.789Z,96033.66
2023-03-26T19:49:49.604Z,96023.09
2023-03-26T19:52:20.725Z,96023.97
2023-03-26T19:55:00.511Z,96019.44
2023-03-26T19:57:31.977Z,96021.88
2023-03-26T19:59:59.148Z,96021.31
2023-03-26T20:02:26.361Z,96018.13
2023-03-26T20:04:52.876Z,96023.19
2023-03-26T20:07:22.068Z,96020.66
2023-03-26T20:10:02.945Z,96016.03
2023-03-26T20:12:29.560Z,96017.50
2023-03-26T20:14:56.315Z,96018.78
2023-03-26T20:17:22.722Z,96013.59
2023-03-26T20:19:49.140Z,96009.69
2023-03-26T20:22:16.893Z,96017.41
2023-03-26T20:24:44.842Z,96019.69
2023-03-26T20:27:14.425Z,96022.28
2023-03-26T20:29:41.074Z,96027.56
2023-03-26T20:32:17.461Z,96021.38
2023-03-26T20:34:44.530Z,96017.56
2023-03-26T20:37:10.898Z,96012.78
2023-03-26T20:39:37.816Z,96011.50
2023-03-26T20:42:04.246Z,96016.34
2023-03-26T20:44:30.977Z,96005.22
2023-03-26T20:46:58.929Z,96002.22
2023-03-26T20:49:25.661Z,96009.53
2023-03-26T20:51:52.699Z,96001.09
2023-03-26T20:54:24.115Z,95999.72
2023-03-26T20:56:51.139Z,96007.50
2023-03-26T20:59:22.273Z,95998.78
2023-03-26T21:01:49.811Z,96005.09
2023-03-26T21:04:17.110Z,96006.72
2023-03-26T21:06:43.915Z,96006.53
2023-03-26T21:09:17.763Z,96012.66
2023-03-26T21:12:05.742Z,96007.38
2023-03-26T21:14:44.016Z,96007.78
2023-03-26T21:17:22.129Z,96005.69
2023-03-26T21:19:49.244Z,96011.41
2023-03-26T21:22:15.655Z,96008.59
2023-03-26T21:24:48.450Z,96011.34
2023-03-26T21:27:17.972Z,96008.81
2023-03-26T21:29:44.697Z,96009.97
2023-03-26T21:32:12.222Z,96016.47
2023-03-26T21:34:47.636Z,96012.47
2023-03-26T21:37:19.092Z,96018.97
2023-03-26T21:39:46.136Z,96019.44
2023-03-26T21:42:13.080Z,96019.38
2023-03-26T21:44:39.680Z,96026.59
2023-03-26T21:47:09.778Z,96028.94
2023-03-26T21:49:37.195Z,96033.66
2023-03-26T21:52:04.219Z,96034.63
2023-03-26T21:54:32.007Z,96048.03
2023-03-26T21:57:04.350Z,96044.38
2023-03-26T21:59:36.397Z,96039.31
2023-03-26T22:02:07.633Z,96054.03
2023-03-26T22:04:51.165Z,96053.53
2023-03-26T22:07:18.905Z,96050.31
2023-03-26T22:09:45.481Z,96057.50
2023-03-26T22:12:12.429Z,96043.09
2023-03-26T22:14:38.902Z,96055.09
2023-03-26T22:17:05.691Z,96049.16
2023-03-26T22:19:32.106Z,96056.38
2023-03-26T22:22:00.024Z,96055.38
2023-03-26T22:24:27.070Z,96055.56
2023-03-26T22:26:53.594Z,96060.50
2023-03-26T22:29:19.965Z,96069.94
2023-03-26T22:31:46.456Z,96059.78
2023-03-26T22:34:13.063Z,96056.88
2023-03-26T22:36:40.460Z,96065.16
2023-03-26T22:39:07.140Z,96063.25
2023-03-26T22:41:33.579Z,96070.50
2023-03-26T22:44:09.451Z,96072.13
2023-03-26T22:46:47.344Z,96090.41
2023-03-26T22:49:13.799Z,96083.44
2023-03-26T22:51:40.270Z,96087.97
2023-03-26T22:54:06.630Z,96093.34
2023-03-26T22:56:33.149Z,96094.63
2023-03-26T22:58:59.585Z,96100.47
2023-03-26T23:01:26.119Z,96101.06
2023-03-26T23:03:52.627Z,96110.97
2023-03-26T23:06:19.062Z,96110.13
2023-03-26T23:08:45.512Z,96120.63
2023-03-26T23:11:13.485Z,96122.50
2023-03-26T23:13:40.752Z,96136.38
2023-03-26T23:16:07.540Z,96129.41
2023-03-26T23:18:34.407Z,96132.56
2023-03-26T23:21:00.833Z,96140.94
2023-03-26T23:23:28.715Z,96148.50
2023-03-26T23:25:56.014Z,96153.03
2023-03-26T23:28:23.901Z,96151.00
2023-03-26T23:30:52.184Z,96158.72
2023-03-26T23:33:20.487Z,96161.50
2023-03-26T23:35:47.860Z,96176.19
2023-03-26T23:38:14.282Z,96171.56
2023-03-26T23:40:43.865Z,96184.16
2023-03-26T23:43:10.746Z,96186.25
2023-03-26T23:45:37.463Z,96209.22
2023-03-26T23:48:04.916Z,96193.00
2023-03-26T23:50:31.367Z,96210.69
2023-03-26T23:52:58.212Z,96211.97
2023-03-26T23:55:28.082Z,96204.75
2023-03-26T23:57:54.692Z,96205.56
